sensor_id;sensor_type;location;lat;lon;timestamp;temperature;humidity
21267;DHT22;10791;53.108;18.326;2022-12-10T00:00:44;-0.40;99.90
21267;DHT22;10791;53.108;18.326;2022-12-10T00:05:53;-0.40;99.90
21267;DHT22;10791;53.108;18.326;2022-12-10T00:10:57;-0.40;99.90
21267;DHT22;10791;53.108;18.326;2022-12-10T00:16:01;-0.30;99.90
21267;DHT22;10791;53.108;18.326;2022-12-10T00:21:08;-0.30;99.90
21267;DHT22;10791;53.108;18.326;2022-12-10T00:26:15;-0.30;99.90
21267;DHT22;10791;53.108;18.326;2022-12-10T00:31:21;-0.20;99.90
21267;DHT22;10791;53.108;18.326;2022-12-10T00:36:31;-0.20;99.90
21267;DHT22;10791;53.108;18.326;2022-12-10T00:41:35;-0.20;99.90
21267;DHT22;10791;53.108;18.326;2022-12-10T00:46:38;-0.20;99.90
21267;DHT22;10791;53.108;18.326;2022-12-10T00:51:42;-0.40;99.90
21267;DHT22;10791;53.108;18.326;2022-12-10T00:56:45;-0.40;99.90
21267;DHT22;10791;53.108;18.326;2022-12-10T01:01:50;-0.40;99.90
21267;DHT22;10791;53.108;18.326;2022-12-10T01:06:54;-0.50;99.90
21267;DHT22;10791;53.108;18.326;2022-12-10T01:12:00;-0.50;99.90
21267;DHT22;10791;53.108;18.326;2022-12-10T01:17:07;-0.60;99.90
21267;DHT22;10791;53.108;18.326;2022-12-10T01:22:11;-0.50;99.90
21267;DHT22;10791;53.108;18.326;2022-12-10T01:27:14;-0.50;99.90
21267;DHT22;10791;53.108;18.326;2022-12-10T01:32:18;-0.50;99.90
21267;DHT22;10791;53.108;18.326;2022-12-10T01:37:21;-0.40;99.90
21267;DHT22;10791;53.108;18.326;2022-12-10T01:42:25;-0.40;99.90
21267;DHT22;10791;53.108;18.326;2022-12-10T01:47:29;-0.40;99.90
21267;DHT22;10791;53.108;18.326;2022-12-10T01:52:33;-0.30;99.90
21267;DHT22;10791;53.108;18.326;2022-12-10T01:57:36;-0.30;99.90
21267;DHT22;10791;53.108;18.326;2022-12-10T02:02:58;-0.30;99.90
21267;DHT22;10791;53.108;18.326;2022-12-10T02:08:25;-0.30;99.90
21267;DHT22;10791;53.108;18.326;2022-12-10T02:13:42;-0.30;99.90
21267;DHT22;10791;53.108;18.326;2022-12-10T02:24:18;-0.20;99.90
21267;DHT22;10791;53.108;18.326;2022-12-10T02:29:27;-0.20;99.90
21267;DHT22;10791;53.108;18.326;2022-12-10T02:34:35;-0.20;99.90
21267;DHT22;10791;53.108;18.326;2022-12-10T02:39:44;-0.10;99.90
21267;DHT22;10791;53.108;18.326;2022-12-10T02:44:49;-0.10;99.90
21267;DHT22;10791;53.108;18.326;2022-12-10T02:49:56;-0.10;99.90
21267;DHT22;10791;53.108;18.326;2022-12-10T02:54:59;-0.10;99.90
21267;DHT22;10791;53.108;18.326;2022-12-10T03:00:34;-0.10;99.90
21267;DHT22;10791;53.108;18.326;2022-12-10T03:06:06;-0.10;99.90
21267;DHT22;10791;53.108;18.326;2022-12-10T03:11:18;-0.10;99.90
21267;DHT22;10791;53.108;18.326;2022-12-10T03:16:28;-0.10;99.90
21267;DHT22;10791;53.108;18.326;2022-12-10T03:21:35;-0.10;99.90
21267;DHT22;10791;53.108;18.326;2022-12-10T03:26:40;-0.10;99.90
21267;DHT22;10791;53.108;18.326;2022-12-10T03:31:45;-0.10;99.90
21267;DHT22;10791;53.108;18.326;2022-12-10T03:36:50;-0.10;99.90
21267;DHT22;10791;53.108;18.326;2022-12-10T03:41:54;-0.10;99.90
21267;DHT22;10791;53.108;18.326;2022-12-10T03:46:58;-0.10;99.90
21267;DHT22;10791;53.108;18.326;2022-12-10T03:52:02;-0.20;99.90
21267;DHT22;10791;53.108;18.326;2022-12-10T03:57:06;-0.20;99.90
21267;DHT22;10791;53.108;18.326;2022-12-10T04:02:09;-0.20;99.90
21267;DHT22;10791;53.108;18.326;2022-12-10T04:07:13;-0.20;99.90
21267;DHT22;10791;53.108;18.326;2022-12-10T04:12:17;-0.20;99.90
21267;DHT22;10791;53.108;18.326;2022-12-10T04:17:20;-0.20;99.90
21267;DHT22;10791;53.108;18.326;2022-12-10T04:22:24;-0.10;99.90
21267;DHT22;10791;53.108;18.326;2022-12-10T04:27:46;-0.20;99.90
21267;DHT22;10791;53.108;18.326;2022-12-10T04:32:50;-0.20;99.90
21267;DHT22;10791;53.108;18.326;2022-12-10T04:37:54;-0.20;99.90
21267;DHT22;10791;53.108;18.326;2022-12-10T04:42:57;-0.20;99.90
21267;DHT22;10791;53.108;18.326;2022-12-10T04:48:00;-0.20;99.90
21267;DHT22;10791;53.108;18.326;2022-12-10T04:53:04;-0.20;99.90
21267;DHT22;10791;53.108;18.326;2022-12-10T04:58:07;-0.20;99.90
21267;DHT22;10791;53.108;18.326;2022-12-10T05:03:11;-0.20;99.90
21267;DHT22;10791;53.108;18.326;2022-12-10T05:08:14;-0.30;99.90
21267;DHT22;10791;53.108;18.326;2022-12-10T05:13:18;-0.30;99.90
21267;DHT22;10791;53.108;18.326;2022-12-10T05:18:21;-0.30;99.90
21267;DHT22;10791;53.108;18.326;2022-12-10T05:23:24;-0.30;99.90
21267;DHT22;10791;53.108;18.326;2022-12-10T05:28:35;-0.30;99.90
21267;DHT22;10791;53.108;18.326;2022-12-10T05:33:40;-0.20;99.90
21267;DHT22;10791;53.108;18.326;2022-12-10T05:38:44;-0.20;99.90
21267;DHT22;10791;53.108;18.326;2022-12-10T05:43:48;-0.30;99.90
21267;DHT22;10791;53.108;18.326;2022-12-10T05:48:52;-0.30;99.90
21267;DHT22;10791;53.108;18.326;2022-12-10T05:53:57;-0.30;99.90
21267;DHT22;10791;53.108;18.326;2022-12-10T05:59:02;-0.20;99.90
21267;DHT22;10791;53.108;18.326;2022-12-10T06:04:06;-0.20;99.90
21267;DHT22;10791;53.108;18.326;2022-12-10T06:09:12;-0.20;99.90
21267;DHT22;10791;53.108;18.326;2022-12-10T06:14:16;-0.20;99.90
21267;DHT22;10791;53.108;18.326;2022-12-10T06:19:19;-0.20;99.90
21267;DHT22;10791;53.108;18.326;2022-12-10T06:24:23;-0.20;99.90
21267;DHT22;10791;53.108;18.326;2022-12-10T06:29:27;-0.20;99.90
21267;DHT22;10791;53.108;18.326;2022-12-10T06:34:30;-0.20;99.90
21267;DHT22;10791;53.108;18.326;2022-12-10T06:39:34;-0.30;99.90
21267;DHT22;10791;53.108;18.326;2022-12-10T06:44:37;-0.20;99.90
21267;DHT22;10791;53.108;18.326;2022-12-10T06:49:41;-0.30;99.90
21267;DHT22;10791;53.108;18.326;2022-12-10T06:54:44;-0.30;99.90
21267;DHT22;10791;53.108;18.326;2022-12-10T06:59:48;-0.30;99.90
21267;DHT22;10791;53.108;18.326;2022-12-10T07:04:51;-0.30;99.90
21267;DHT22;10791;53.108;18.326;2022-12-10T07:09:54;-0.30;99.90
21267;DHT22;10791;53.108;18.326;2022-12-10T07:14:58;-0.30;99.90
21267;DHT22;10791;53.108;18.326;2022-12-10T07:20:02;-0.30;99.90
21267;DHT22;10791;53.108;18.326;2022-12-10T07:25:06;-0.20;99.90
21267;DHT22;10791;53.108;18.326;2022-12-10T07:30:10;-0.20;99.90
21267;DHT22;10791;53.108;18.326;2022-12-10T07:35:13;-0.20;99.90
21267;DHT22;10791;53.108;18.326;2022-12-10T07:40:17;-0.20;99.90
21267;DHT22;10791;53.108;18.326;2022-12-10T07:45:22;-0.20;99.90
21267;DHT22;10791;53.108;18.326;2022-12-10T07:50:25;-0.20;99.90
21267;DHT22;10791;53.108;18.326;2022-12-10T07:55:29;-0.20;99.90
21267;DHT22;10791;53.108;18.326;2022-12-10T08:00:32;-0.20;99.90
21267;DHT22;10791;53.108;18.326;2022-12-10T08:05:36;-0.30;99.90
21267;DHT22;10791;53.108;18.326;2022-12-10T08:10:40;-0.30;99.90
21267;DHT22;10791;53.108;18.326;2022-12-10T08:15:44;-0.30;99.90
21267;DHT22;10791;53.108;18.326;2022-12-10T08:20:47;-0.30;99.90
21267;DHT22;10791;53.108;18.326;2022-12-10T08:25:51;-0.30;99.90
21267;DHT22;10791;53.108;18.326;2022-12-10T08:30:54;-0.30;99.90
21267;DHT22;10791;53.108;18.326;2022-12-10T08:35:59;-0.20;99.90
21267;DHT22;10791;53.108;18.326;2022-12-10T08:41:14;-0.20;99.90
21267;DHT22;10791;53.108;18.326;2022-12-10T08:46:19;-0.20;99.90
21267;DHT22;10791;53.108;18.326;2022-12-10T08:51:23;-0.20;99.90
21267;DHT22;10791;53.108;18.326;2022-12-10T08:56:28;-0.20;99.90
21267;DHT22;10791;53.108;18.326;2022-12-10T09:01:38;-0.20;99.90
21267;DHT22;10791;53.108;18.326;2022-12-10T09:06:42;-0.10;99.90
21267;DHT22;10791;53.108;18.326;2022-12-10T09:11:46;-0.10;99.90
21267;DHT22;10791;53.108;18.326;2022-12-10T09:16:49;-0.10;99.90
21267;DHT22;10791;53.108;18.326;2022-12-10T09:21:53;-0.10;99.90
21267;DHT22;10791;53.108;18.326;2022-12-10T09:27:18;0.00;99.90
21267;DHT22;10791;53.108;18.326;2022-12-10T09:32:31;-0.10;99.90
21267;DHT22;10791;53.108;18.326;2022-12-10T09:37:35;-0.10;99.90
21267;DHT22;10791;53.108;18.326;2022-12-10T09:43:07;-0.10;99.90
21267;DHT22;10791;53.108;18.326;2022-12-10T09:53:45;0.00;99.90
21267;DHT22;10791;53.108;18.326;2022-12-10T09:58:49;-0.10;99.90
21267;DHT22;10791;53.108;18.326;2022-12-10T10:03:54;0.00;99.90
21267;DHT22;10791;53.108;18.326;2022-12-10T10:09:01;-0.10;99.90
21267;DHT22;10791;53.108;18.326;2022-12-10T10:14:13;-0.10;99.90
21267;DHT22;10791;53.108;18.326;2022-12-10T10:19:26;-0.10;99.90
21267;DHT22;10791;53.108;18.326;2022-12-10T10:24:37;-0.10;99.90
21267;DHT22;10791;53.108;18.326;2022-12-10T10:29:47;-0.10;99.90
21267;DHT22;10791;53.108;18.326;2022-12-10T10:34:59;-0.10;99.90
21267;DHT22;10791;53.108;18.326;2022-12-10T10:40:04;-0.10;99.90
21267;DHT22;10791;53.108;18.326;2022-12-10T10:51:06;-0.10;99.90
21267;DHT22;10791;53.108;18.326;2022-12-10T10:56:25;-0.10;99.90
21267;DHT22;10791;53.108;18.326;2022-12-10T11:22:33;-0.10;99.90
21267;DHT22;10791;53.108;18.326;2022-12-10T11:45:59;-0.10;99.90
21267;DHT22;10791;53.108;18.326;2022-12-10T11:51:26;-0.10;99.90
21267;DHT22;10791;53.108;18.326;2022-12-10T11:57:15;-0.10;99.90
21267;DHT22;10791;53.108;18.326;2022-12-10T12:09:25;0.00;99.90
21267;DHT22;10791;53.108;18.326;2022-12-10T12:15:21;0.00;99.90
21267;DHT22;10791;53.108;18.326;2022-12-10T12:20:57;0.00;99.90
21267;DHT22;10791;53.108;18.326;2022-12-10T12:26:54;0.00;99.90
21267;DHT22;10791;53.108;18.326;2022-12-10T12:32:44;0.00;99.90
21267;DHT22;10791;53.108;18.326;2022-12-10T12:37:59;0.00;99.90
21267;DHT22;10791;53.108;18.326;2022-12-10T12:43:10;0.10;99.90
21267;DHT22;10791;53.108;18.326;2022-12-10T12:48:36;0.10;99.90
21267;DHT22;10791;53.108;18.326;2022-12-10T12:53:54;0.00;99.90
21267;DHT22;10791;53.108;18.326;2022-12-10T12:59:40;0.00;99.90
21267;DHT22;10791;53.108;18.326;2022-12-10T13:04:53;0.00;99.90
21267;DHT22;10791;53.108;18.326;2022-12-10T13:15:57;0.00;99.90
21267;DHT22;10791;53.108;18.326;2022-12-10T13:34:14;0.10;99.90
21267;DHT22;10791;53.108;18.326;2022-12-10T13:40:01;0.10;99.90
21267;DHT22;10791;53.108;18.326;2022-12-10T13:45:27;0.10;99.90
21267;DHT22;10791;53.108;18.326;2022-12-10T13:50:51;0.20;99.90
21267;DHT22;10791;53.108;18.326;2022-12-10T14:08:15;0.10;99.90
21267;DHT22;10791;53.108;18.326;2022-12-10T14:13:37;0.10;99.90
21267;DHT22;10791;53.108;18.326;2022-12-10T14:26:47;-0.10;99.90
21267;DHT22;10791;53.108;18.326;2022-12-10T15:27:30;0.10;99.90
21267;DHT22;10791;53.108;18.326;2022-12-10T15:32:38;0.00;99.90
21267;DHT22;10791;53.108;18.326;2022-12-10T15:37:50;0.00;99.90
21267;DHT22;10791;53.108;18.326;2022-12-10T15:48:29;0.00;99.90
21267;DHT22;10791;53.108;18.326;2022-12-10T15:53:37;-0.10;99.90
21267;DHT22;10791;53.108;18.326;2022-12-10T15:58:42;-0.10;99.90
21267;DHT22;10791;53.108;18.326;2022-12-10T16:03:48;-0.10;99.90
21267;DHT22;10791;53.108;18.326;2022-12-10T16:08:52;-0.10;99.90
21267;DHT22;10791;53.108;18.326;2022-12-10T16:13:56;-0.10;99.90
21267;DHT22;10791;53.108;18.326;2022-12-10T16:19:10;-0.10;99.90
21267;DHT22;10791;53.108;18.326;2022-12-10T16:24:15;-0.10;99.90
21267;DHT22;10791;53.108;18.326;2022-12-10T16:29:21;-0.20;99.90
21267;DHT22;10791;53.108;18.326;2022-12-10T16:34:28;-0.20;99.90
21267;DHT22;10791;53.108;18.326;2022-12-10T16:39:33;-0.20;99.90
21267;DHT22;10791;53.108;18.326;2022-12-10T16:44:39;-0.20;99.90
21267;DHT22;10791;53.108;18.326;2022-12-10T16:49:44;-0.20;99.90
21267;DHT22;10791;53.108;18.326;2022-12-10T16:54:49;-0.20;99.90
21267;DHT22;10791;53.108;18.326;2022-12-10T16:59:57;-0.20;99.90
21267;DHT22;10791;53.108;18.326;2022-12-10T17:05:01;-0.20;99.90
21267;DHT22;10791;53.108;18.326;2022-12-10T17:10:05;-0.20;99.90
21267;DHT22;10791;53.108;18.326;2022-12-10T17:15:13;-0.20;99.90
21267;DHT22;10791;53.108;18.326;2022-12-10T17:20:19;-0.20;99.90
21267;DHT22;10791;53.108;18.326;2022-12-10T17:25:25;-0.10;99.90
21267;DHT22;10791;53.108;18.326;2022-12-10T17:30:28;-0.20;99.90
21267;DHT22;10791;53.108;18.326;2022-12-10T17:35:32;-0.20;99.90
21267;DHT22;10791;53.108;18.326;2022-12-10T17:40:36;-0.20;99.90
21267;DHT22;10791;53.108;18.326;2022-12-10T17:45:41;-0.10;99.90
21267;DHT22;10791;53.108;18.326;2022-12-10T17:50:46;-0.20;99.90
21267;DHT22;10791;53.108;18.326;2022-12-10T17:55:58;-0.20;99.90
21267;DHT22;10791;53.108;18.326;2022-12-10T18:01:03;-0.20;99.90
21267;DHT22;10791;53.108;18.326;2022-12-10T18:06:22;-0.20;99.90
21267;DHT22;10791;53.108;18.326;2022-12-10T18:11:36;-0.20;99.90
21267;DHT22;10791;53.108;18.326;2022-12-10T18:16:41;-0.20;99.90
21267;DHT22;10791;53.108;18.326;2022-12-10T18:21:46;-0.30;99.90
21267;DHT22;10791;53.108;18.326;2022-12-10T18:26:57;-0.30;99.90
21267;DHT22;10791;53.108;18.326;2022-12-10T18:32:02;-0.30;99.90
21267;DHT22;10791;53.108;18.326;2022-12-10T18:37:10;-0.30;99.90
21267;DHT22;10791;53.108;18.326;2022-12-10T18:42:15;-0.30;99.90
21267;DHT22;10791;53.108;18.326;2022-12-10T18:47:21;-0.30;99.90
21267;DHT22;10791;53.108;18.326;2022-12-10T18:52:26;-0.30;99.90
21267;DHT22;10791;53.108;18.326;2022-12-10T18:57:31;-0.30;99.90
21267;DHT22;10791;53.108;18.326;2022-12-10T19:02:44;-0.40;99.90
21267;DHT22;10791;53.108;18.326;2022-12-10T19:07:50;-0.40;99.90
21267;DHT22;10791;53.108;18.326;2022-12-10T19:12:55;-0.30;99.90
21267;DHT22;10791;53.108;18.326;2022-12-10T19:18:04;-0.40;99.90
21267;DHT22;10791;53.108;18.326;2022-12-10T19:23:10;-0.40;99.90
21267;DHT22;10791;53.108;18.326;2022-12-10T19:28:16;-0.40;99.90
21267;DHT22;10791;53.108;18.326;2022-12-10T19:33:23;-0.40;99.90
21267;DHT22;10791;53.108;18.326;2022-12-10T19:38:28;-0.40;99.90
21267;DHT22;10791;53.108;18.326;2022-12-10T19:43:33;-0.30;99.90
21267;DHT22;10791;53.108;18.326;2022-12-10T19:48:41;-0.30;99.90
21267;DHT22;10791;53.108;18.326;2022-12-10T19:53:46;-0.30;99.90
21267;DHT22;10791;53.108;18.326;2022-12-10T19:59:00;-0.30;99.90
21267;DHT22;10791;53.108;18.326;2022-12-10T20:04:06;-0.30;99.90
21267;DHT22;10791;53.108;18.326;2022-12-10T20:09:23;-0.30;99.90
21267;DHT22;10791;53.108;18.326;2022-12-10T20:14:28;-0.40;99.90
21267;DHT22;10791;53.108;18.326;2022-12-10T20:19:37;-0.40;99.90
21267;DHT22;10791;53.108;18.326;2022-12-10T20:24:45;-0.40;99.90
21267;DHT22;10791;53.108;18.326;2022-12-10T20:29:51;-0.40;99.90
21267;DHT22;10791;53.108;18.326;2022-12-10T20:34:56;-0.40;99.90
21267;DHT22;10791;53.108;18.326;2022-12-10T20:40:16;-0.40;99.90
21267;DHT22;10791;53.108;18.326;2022-12-10T20:45:45;-0.40;99.90
21267;DHT22;10791;53.108;18.326;2022-12-10T20:50:53;-0.40;99.90
21267;DHT22;10791;53.108;18.326;2022-12-10T20:55:58;-0.40;99.90
21267;DHT22;10791;53.108;18.326;2022-12-10T21:01:03;-0.40;99.90
21267;DHT22;10791;53.108;18.326;2022-12-10T21:06:14;-0.30;99.90
21267;DHT22;10791;53.108;18.326;2022-12-10T21:11:23;-0.40;99.90
21267;DHT22;10791;53.108;18.326;2022-12-10T21:16:28;-0.40;99.90
21267;DHT22;10791;53.108;18.326;2022-12-10T21:21:34;-0.40;99.90
21267;DHT22;10791;53.108;18.326;2022-12-10T21:26:42;-0.40;99.90
21267;DHT22;10791;53.108;18.326;2022-12-10T21:31:46;-0.50;99.90
21267;DHT22;10791;53.108;18.326;2022-12-10T21:36:51;-0.50;99.90
21267;DHT22;10791;53.108;18.326;2022-12-10T21:41:55;-0.50;99.90
21267;DHT22;10791;53.108;18.326;2022-12-10T21:47:21;-0.50;99.90
21267;DHT22;10791;53.108;18.326;2022-12-10T21:52:27;-0.40;99.90
21267;DHT22;10791;53.108;18.326;2022-12-10T21:57:31;-0.40;99.90
21267;DHT22;10791;53.108;18.326;2022-12-10T22:02:38;-0.40;99.90
21267;DHT22;10791;53.108;18.326;2022-12-10T22:07:47;-0.40;99.90
21267;DHT22;10791;53.108;18.326;2022-12-10T22:12:52;-0.40;99.90
21267;DHT22;10791;53.108;18.326;2022-12-10T22:17:56;-0.30;99.90
21267;DHT22;10791;53.108;18.326;2022-12-10T22:23:02;-0.40;99.90
21267;DHT22;10791;53.108;18.326;2022-12-10T22:28:06;-0.40;99.90
21267;DHT22;10791;53.108;18.326;2022-12-10T22:33:11;-0.40;99.90
21267;DHT22;10791;53.108;18.326;2022-12-10T22:38:16;-0.40;99.90
21267;DHT22;10791;53.108;18.326;2022-12-10T22:43:21;-0.50;99.90
21267;DHT22;10791;53.108;18.326;2022-12-10T22:48:45;-0.50;99.90
21267;DHT22;10791;53.108;18.326;2022-12-10T22:53:49;-0.50;99.90
21267;DHT22;10791;53.108;18.326;2022-12-10T22:58:54;-0.50;99.90
21267;DHT22;10791;53.108;18.326;2022-12-10T23:03:57;-0.60;99.90
21267;DHT22;10791;53.108;18.326;2022-12-10T23:09:01;-0.70;99.90
21267;DHT22;10791;53.108;18.326;2022-12-10T23:14:07;-0.80;99.90
21267;DHT22;10791;53.108;18.326;2022-12-10T23:19:10;-0.80;99.90
21267;DHT22;10791;53.108;18.326;2022-12-10T23:24:14;-0.90;99.90
21267;DHT22;10791;53.108;18.326;2022-12-10T23:29:18;-1.00;99.90
21267;DHT22;10791;53.108;18.326;2022-12-10T23:34:21;-1.00;99.90
21267;DHT22;10791;53.108;18.326;2022-12-10T23:39:25;-1.00;99.90
21267;DHT22;10791;53.108;18.326;2022-12-10T23:44:28;-1.10;99.90
21267;DHT22;10791;53.108;18.326;2022-12-10T23:49:32;-1.00;99.90
21267;DHT22;10791;53.108;18.326;2022-12-10T23:54:35;-1.00;99.90
21267;DHT22;10791;53.108;18.326;2022-12-10T23:59:39;-1.00;99.90
